Time;durP1;ratioP1;P1;durP2;ratioP2;P2;SDS_P1;SDS_P2;PMS_P1;PMS_P2;Temp;Humidity;BMP_temperature;BMP_pressure;BME280_temperature;BME280_humidity;BME280_pressure;Samples;Min_cycle;Max_cycle;Signal;HPM_P1;HPM_P2
2024/03/27 00:00:07;;;;;;;2.67;1.05;;;;;;;;;;5069307;28;20047;-58
2024/03/27 00:02:33;;;;;;;3.95;0.90;;;;;;;;;;5069058;28;20025;-60
2024/03/27 00:04:59;;;;;;;1.92;0.77;;;;;;;;;;5069935;28;20044;-62
2024/03/27 00:07:24;;;;;;;2.58;0.75;;;;;;;;;;5068629;28;20044;-62
2024/03/27 00:09:50;;;;;;;2.35;0.80;;;;;;;;;;5069328;28;20162;-62
2024/03/27 00:12:15;;;;;;;3.00;0.82;;;;;;;;;;5069079;28;20082;-61
2024/03/27 00:14:40;;;;;;;2.28;0.82;;;;;;;;;;5068905;28;20040;-56
2024/03/27 00:17:06;;;;;;;1.45;0.73;;;;;;;;;;5069291;28;20032;-56
2024/03/27 00:19:31;;;;;;;1.08;0.63;;;;;;;;;;5069296;28;20091;-56
2024/03/27 00:21:57;;;;;;;1.50;0.68;;;;;;;;;;5069252;28;20044;-56
2024/03/27 00:24:22;;;;;;;3.58;0.70;;;;;;;;;;5069270;28;20078;-55
2024/03/27 00:26:47;;;;;;;1.77;0.70;;;;;;;;;;5071342;28;20041;-57
2024/03/27 00:29:13;;;;;;;2.20;0.77;;;;;;;;;;5072659;28;20044;-56
2024/03/27 00:31:39;;;;;;;1.92;0.90;;;;;;;;;;5072802;28;20036;-54
2024/03/27 00:34:05;;;;;;;2.55;0.90;;;;;;;;;;5071998;28;20594;-56
2024/03/27 00:36:30;;;;;;;2.15;0.80;;;;;;;;;;5072448;28;20035;-55
2024/03/27 00:38:55;;;;;;;1.42;0.52;;;;;;;;;;5072760;28;20127;-56
2024/03/27 00:41:21;;;;;;;1.60;0.80;;;;;;;;;;5071935;28;20472;-54
2024/03/27 00:43:46;;;;;;;1.88;0.75;;;;;;;;;;5072346;28;20037;-55
2024/03/27 00:46:12;;;;;;;1.58;0.80;;;;;;;;;;5072573;28;20047;-56
2024/03/27 00:48:37;;;;;;;3.97;0.80;;;;;;;;;;5070050;28;20039;-55
2024/03/27 00:51:03;;;;;;;0.95;0.63;;;;;;;;;;5072573;28;20083;-56
2024/03/27 00:53:28;;;;;;;3.22;0.80;;;;;;;;;;5072317;28;20909;-56
2024/03/27 00:55:58;;;;;;;2.75;0.65;;;;;;;;;;5072355;28;20039;-56
2024/03/27 00:58:24;;;;;;;1.67;0.70;;;;;;;;;;5070960;28;20044;-56
2024/03/27 01:00:49;;;;;;;1.90;0.65;;;;;;;;;;5072554;28;20055;-54
2024/03/27 01:03:15;;;;;;;2.38;0.70;;;;;;;;;;5072610;28;20062;-56
2024/03/27 01:05:41;;;;;;;1.88;0.95;;;;;;;;;;5071812;28;20801;-56
2024/03/27 01:08:07;;;;;;;2.05;0.73;;;;;;;;;;5071837;28;20037;-53
2024/03/27 01:10:33;;;;;;;2.47;0.70;;;;;;;;;;5072452;28;20057;-56
2024/03/27 01:12:58;;;;;;;1.20;0.60;;;;;;;;;;5071092;28;20525;-54
2024/03/27 01:15:23;;;;;;;2.03;0.80;;;;;;;;;;5072229;28;20653;-56
2024/03/27 01:17:50;;;;;;;1.63;0.70;;;;;;;;;;5072294;28;20036;-56
2024/03/27 01:20:16;;;;;;;0.93;0.60;;;;;;;;;;5071443;28;20049;-56
2024/03/27 01:22:41;;;;;;;2.42;0.80;;;;;;;;;;5072105;28;20118;-56
2024/03/27 01:25:08;;;;;;;1.92;0.70;;;;;;;;;;5072001;28;20085;-56
2024/03/27 01:27:34;;;;;;;0.95;0.52;;;;;;;;;;5071276;28;20044;-56
2024/03/27 01:29:59;;;;;;;1.05;0.68;;;;;;;;;;5071353;28;20082;-56
2024/03/27 01:32:24;;;;;;;0.70;0.50;;;;;;;;;;5072161;28;20028;-54
2024/03/27 01:34:50;;;;;;;1.50;0.70;;;;;;;;;;5071679;28;20044;-55
2024/03/27 01:37:15;;;;;;;2.10;0.98;;;;;;;;;;5070632;28;20024;-56
2024/03/27 01:39:40;;;;;;;1.83;0.80;;;;;;;;;;5071498;28;20043;-56
2024/03/27 01:42:06;;;;;;;1.40;0.80;;;;;;;;;;5070766;28;20037;-56
2024/03/27 01:44:31;;;;;;;1.70;0.70;;;;;;;;;;5071174;28;20028;-55
2024/03/27 01:46:56;;;;;;;1.67;0.70;;;;;;;;;;5071543;28;20040;-55
2024/03/27 01:49:22;;;;;;;1.48;0.70;;;;;;;;;;5071261;28;20032;-53
2024/03/27 01:51:47;;;;;;;1.42;0.70;;;;;;;;;;5069877;28;20051;-57
2024/03/27 01:54:15;;;;;;;1.00;0.60;;;;;;;;;;5053427;28;20078;-56
2024/03/27 01:56:41;;;;;;;2.25;0.65;;;;;;;;;;5053317;28;20420;-53
2024/03/27 01:59:07;;;;;;;1.10;0.60;;;;;;;;;;5071122;28;20039;-56
2024/03/27 02:01:33;;;;;;;1.70;0.70;;;;;;;;;;5071119;28;20036;-56
2024/03/27 02:04:02;;;;;;;1.00;0.60;;;;;;;;;;5071011;28;20044;-56
2024/03/27 02:06:27;;;;;;;1.42;0.63;;;;;;;;;;5070886;28;20043;-61
2024/03/27 02:08:53;;;;;;;1.77;0.70;;;;;;;;;;5070647;28;20036;-59
2024/03/27 02:11:19;;;;;;;2.13;0.77;;;;;;;;;;5070354;28;20036;-61
2024/03/27 02:13:45;;;;;;;2.05;0.80;;;;;;;;;;5070949;28;20075;-60
2024/03/27 02:16:10;;;;;;;2.13;0.70;;;;;;;;;;5070756;28;20573;-61
2024/03/27 02:18:35;;;;;;;1.33;0.68;;;;;;;;;;5070627;28;20201;-56
2024/03/27 02:21:01;;;;;;;1.25;0.70;;;;;;;;;;5070631;28;20047;-53
2024/03/27 02:23:31;;;;;;;1.63;0.63;;;;;;;;;;5070562;28;20039;-55
2024/03/27 02:26:00;;;;;;;1.83;0.70;;;;;;;;;;5070369;28;20037;-55
2024/03/27 02:28:26;;;;;;;1.40;0.70;;;;;;;;;;5052479;28;20036;-56
2024/03/27 02:30:51;;;;;;;1.40;0.63;;;;;;;;;;5070684;28;20050;-57
2024/03/27 02:33:16;;;;;;;2.03;0.60;;;;;;;;;;5070531;28;20040;-56
2024/03/27 02:35:42;;;;;;;0.95;0.60;;;;;;;;;;5070679;28;20391;-54
2024/03/27 02:38:07;;;;;;;1.02;0.52;;;;;;;;;;5070529;28;20452;-58
2024/03/27 02:40:32;;;;;;;2.05;0.80;;;;;;;;;;5070088;28;20575;-56
2024/03/27 02:42:57;;;;;;;2.30;0.70;;;;;;;;;;5070022;28;20032;-56
2024/03/27 02:45:23;;;;;;;1.23;0.70;;;;;;;;;;5070607;28;20467;-56
2024/03/27 02:47:48;;;;;;;1.33;0.70;;;;;;;;;;5069741;28;20645;-57
2024/03/27 02:50:14;;;;;;;1.15;0.55;;;;;;;;;;5069691;28;20036;-57
2024/03/27 02:52:39;;;;;;;1.00;0.60;;;;;;;;;;5070568;28;20029;-57
2024/03/27 02:55:05;;;;;;;1.77;0.70;;;;;;;;;;5070036;28;20066;-58
2024/03/27 02:57:30;;;;;;;1.23;0.60;;;;;;;;;;5069988;28;20036;-57
2024/03/27 02:59:55;;;;;;;1.35;0.47;;;;;;;;;;5069879;28;20044;-57
2024/03/27 03:02:21;;;;;;;1.65;0.60;;;;;;;;;;5069956;28;20051;-58
2024/03/27 03:04:46;;;;;;;0.93;0.52;;;;;;;;;;5069861;28;20028;-56
2024/03/27 03:07:11;;;;;;;1.13;0.50;;;;;;;;;;5069621;28;20032;-57
2024/03/27 03:09:37;;;;;;;0.93;0.50;;;;;;;;;;5070045;28;20085;-55
2024/03/27 03:12:04;;;;;;;0.63;0.50;;;;;;;;;;5069255;28;20028;-59
2024/03/27 03:14:29;;;;;;;0.52;0.40;;;;;;;;;;5070024;28;20040;-57
2024/03/27 03:16:55;;;;;;;1.73;0.60;;;;;;;;;;5070413;28;20040;-54
2024/03/27 03:19:20;;;;;;;0.90;0.50;;;;;;;;;;5069356;28;20075;-58
2024/03/27 03:21:45;;;;;;;1.13;0.60;;;;;;;;;;5070379;28;20025;-54
2024/03/27 03:24:11;;;;;;;0.82;0.52;;;;;;;;;;5070176;28;20040;-57
2024/03/27 03:26:38;;;;;;;0.70;0.45;;;;;;;;;;5069097;28;20115;-58
2024/03/27 03:29:03;;;;;;;1.10;0.60;;;;;;;;;;5069473;28;20504;-58
2024/03/27 03:31:28;;;;;;;1.98;0.70;;;;;;;;;;5069957;28;20041;-55
2024/03/27 03:33:54;;;;;;;1.27;0.70;;;;;;;;;;5069297;28;20040;-58
2024/03/27 03:36:19;;;;;;;0.65;0.45;;;;;;;;;;5069792;28;20139;-58
2024/03/27 03:38:46;;;;;;;0.52;0.47;;;;;;;;;;5069720;28;20062;-54
2024/03/27 03:41:13;;;;;;;1.42;0.57;;;;;;;;;;5069658;28;20035;-57
2024/03/27 03:43:39;;;;;;;1.00;0.57;;;;;;;;;;5069557;28;20032;-56
2024/03/27 03:46:04;;;;;;;1.25;0.60;;;;;;;;;;5070040;28;20090;-58
2024/03/27 03:48:30;;;;;;;1.50;0.60;;;;;;;;;;5069747;28;20395;-56
2024/03/27 03:50:55;;;;;;;1.65;0.50;;;;;;;;;;5069605;28;20111;-58
2024/03/27 03:53:20;;;;;;;1.00;0.40;;;;;;;;;;5069664;28;20036;-58
2024/03/27 03:55:46;;;;;;;1.48;0.50;;;;;;;;;;5069807;28;20036;-57
2024/03/27 03:58:12;;;;;;;0.60;0.40;;;;;;;;;;5069160;28;20029;-58
2024/03/27 04:00:37;;;;;;;0.93;0.50;;;;;;;;;;5071573;28;20062;-58
2024/03/27 04:03:03;;;;;;;1.17;0.60;;;;;;;;;;5073168;28;20032;-57
2024/03/27 04:05:28;;;;;;;0.90;0.55;;;;;;;;;;5073464;28;20036;-58
2024/03/27 04:07:53;;;;;;;0.98;0.40;;;;;;;;;;5072786;28;20064;-57
2024/03/27 04:10:19;;;;;;;0.82;0.50;;;;;;;;;;5073572;28;20024;-58
2024/03/27 04:12:44;;;;;;;1.75;0.50;;;;;;;;;;5055098;28;20472;-56
2024/03/27 04:15:09;;;;;;;0.82;0.40;;;;;;;;;;5071681;28;20123;-56
2024/03/27 04:17:35;;;;;;;0.95;0.43;;;;;;;;;;5072808;28;20078;-57
2024/03/27 04:20:01;;;;;;;1.15;0.40;;;;;;;;;;5072497;28;20091;-55
2024/03/27 04:22:30;;;;;;;1.27;0.50;;;;;;;;;;5072791;28;20044;-57
2024/03/27 04:24:56;;;;;;;0.73;0.50;;;;;;;;;;5072728;28;20025;-57
2024/03/27 04:27:21;;;;;;;1.10;0.40;;;;;;;;;;5072975;28;20104;-57
2024/03/27 04:29:46;;;;;;;0.57;0.47;;;;;;;;;;5072528;28;20047;-57
2024/03/27 04:32:12;;;;;;;0.82;0.40;;;;;;;;;;5073342;28;20083;-58
2024/03/27 04:34:37;;;;;;;1.35;0.70;;;;;;;;;;5072503;28;20048;-57
2024/03/27 04:37:02;;;;;;;1.17;0.40;;;;;;;;;;5072764;28;20036;-57
2024/03/27 04:39:28;;;;;;;0.80;0.50;;;;;;;;;;5072539;28;20028;-58
2024/03/27 04:41:53;;;;;;;0.98;0.50;;;;;;;;;;5073013;28;20082;-58
2024/03/27 04:44:19;;;;;;;0.77;0.50;;;;;;;;;;5072567;28;20054;-58
2024/03/27 04:46:45;;;;;;;1.27;0.70;;;;;;;;;;5072219;28;20093;-59
2024/03/27 04:49:10;;;;;;;0.85;0.47;;;;;;;;;;5072862;28;20043;-56
2024/03/27 04:51:36;;;;;;;0.82;0.50;;;;;;;;;;5070242;28;20044;-55
2024/03/27 04:54:02;;;;;;;1.15;0.60;;;;;;;;;;5072645;28;20033;-51
2024/03/27 04:56:27;;;;;;;1.98;0.68;;;;;;;;;;5072205;28;20484;-58
2024/03/27 04:58:53;;;;;;;0.80;0.50;;;;;;;;;;5072746;28;20045;-57
2024/03/27 05:01:18;;;;;;;0.47;0.32;;;;;;;;;;5071925;28;20115;-58
2024/03/27 05:03:43;;;;;;;1.48;0.60;;;;;;;;;;5071783;28;20111;-57
2024/03/27 05:06:09;;;;;;;0.60;0.35;;;;;;;;;;5071906;28;20041;-55
2024/03/27 05:08:34;;;;;;;1.17;0.55;;;;;;;;;;5072380;28;20032;-55
2024/03/27 05:10:59;;;;;;;0.45;0.40;;;;;;;;;;5070619;28;20045;-57
2024/03/27 05:13:25;;;;;;;0.30;0.30;;;;;;;;;;5071787;28;20040;-54
2024/03/27 05:15:51;;;;;;;1.05;0.50;;;;;;;;;;5071998;28;20106;-56
2024/03/27 05:18:16;;;;;;;0.75;0.40;;;;;;;;;;5071806;28;20067;-58
2024/03/27 05:20:41;;;;;;;1.13;0.50;;;;;;;;;;5071705;28;20170;-58
2024/03/27 05:23:07;;;;;;;2.10;0.47;;;;;;;;;;5072367;28;20032;-58
2024/03/27 05:25:32;;;;;;;1.30;0.60;;;;;;;;;;5071026;28;20033;-58
2024/03/27 05:27:58;;;;;;;2.47;0.60;;;;;;;;;;5072183;28;20044;-58
2024/03/27 05:30:24;;;;;;;1.25;0.50;;;;;;;;;;5071614;28;20074;-55
2024/03/27 05:32:50;;;;;;;0.98;0.45;;;;;;;;;;5071367;28;20482;-54
2024/03/27 05:35:16;;;;;;;0.82;0.38;;;;;;;;;;5071432;28;20041;-58
2024/03/27 05:37:41;;;;;;;1.50;0.52;;;;;;;;;;5063803;28;20028;-56
2024/03/27 05:40:07;;;;;;;0.47;0.35;;;;;;;;;;5071613;28;20036;-57
2024/03/27 05:42:32;;;;;;;1.40;0.50;;;;;;;;;;5071639;28;20040;-55
2024/03/27 05:44:58;;;;;;;0.95;0.55;;;;;;;;;;5071480;28;20032;-55
2024/03/27 05:47:23;;;;;;;1.00;0.47;;;;;;;;;;5071818;28;20048;-57
2024/03/27 05:49:49;;;;;;;0.35;0.35;;;;;;;;;;5070649;28;20052;-57
2024/03/27 05:52:14;;;;;;;0.40;0.30;;;;;;;;;;5071604;28;20070;-58
2024/03/27 05:54:39;;;;;;;1.00;0.47;;;;;;;;;;5071164;28;20055;-57
2024/03/27 05:57:04;;;;;;;1.20;0.60;;;;;;;;;;5071186;28;20040;-54
2024/03/27 05:59:30;;;;;;;0.88;0.40;;;;;;;;;;5071014;28;20032;-55
2024/03/27 06:01:55;;;;;;;1.27;0.50;;;;;;;;;;5071107;28;20037;-56
2024/03/27 06:04:22;;;;;;;1.42;0.47;;;;;;;;;;5069914;28;20032;-57
2024/03/27 06:06:47;;;;;;;1.88;0.60;;;;;;;;;;5070821;28;20604;-58
2024/03/27 06:09:12;;;;;;;0.95;0.45;;;;;;;;;;5071094;28;20111;-57
2024/03/27 06:11:38;;;;;;;1.40;0.60;;;;;;;;;;5068259;28;20116;-53
2024/03/27 06:14:04;;;;;;;0.28;0.28;;;;;;;;;;5070491;28;20055;-58
2024/03/27 06:16:31;;;;;;;0.38;0.38;;;;;;;;;;5071127;28;20036;-56
2024/03/27 06:18:56;;;;;;;0.95;0.50;;;;;;;;;;5070828;28;20040;-58
2024/03/27 06:21:22;;;;;;;0.47;0.30;;;;;;;;;;5068876;28;20071;-57
2024/03/27 06:23:48;;;;;;;1.27;0.50;;;;;;;;;;5071098;28;20028;-58
2024/03/27 06:26:13;;;;;;;1.23;0.50;;;;;;;;;;5070732;28;20040;-58
2024/03/27 06:28:39;;;;;;;1.85;0.52;;;;;;;;;;5070223;28;20040;-57
2024/03/27 06:31:04;;;;;;;1.02;0.40;;;;;;;;;;5070798;28;20025;-62
2024/03/27 06:33:29;;;;;;;2.25;0.50;;;;;;;;;;5070134;28;20032;-62
2024/03/27 06:35:56;;;;;;;0.50;0.40;;;;;;;;;;5066790;28;20059;-62
2024/03/27 06:38:24;;;;;;;0.77;0.50;;;;;;;;;;5070909;28;20086;-61
2024/03/27 06:40:50;;;;;;;0.63;0.50;;;;;;;;;;5070855;28;20033;-62
2024/03/27 06:43:16;;;;;;;1.05;0.60;;;;;;;;;;5070330;28;20677;-62
2024/03/27 06:45:42;;;;;;;1.08;0.50;;;;;;;;;;5070253;28;20041;-62
2024/03/27 06:48:08;;;;;;;0.88;0.40;;;;;;;;;;5070497;28;20033;-61
2024/03/27 06:50:33;;;;;;;1.30;0.50;;;;;;;;;;5070049;28;20062;-62
2024/03/27 06:52:58;;;;;;;0.35;0.30;;;;;;;;;;5070314;28;20377;-61
2024/03/27 06:55:24;;;;;;;1.08;0.50;;;;;;;;;;5064474;28;20082;-61
2024/03/27 06:57:49;;;;;;;0.47;0.38;;;;;;;;;;5068436;28;20036;-61
2024/03/27 07:00:15;;;;;;;0.70;0.40;;;;;;;;;;5069355;28;20029;-61
2024/03/27 07:02:40;;;;;;;0.75;0.40;;;;;;;;;;5070222;28;20443;-61
2024/03/27 07:05:08;;;;;;;0.80;0.43;;;;;;;;;;5068897;28;20034;-60
2024/03/27 07:07:34;;;;;;;0.80;0.50;;;;;;;;;;5069547;28;20043;-60
2024/03/27 07:10:00;;;;;;;1.42;0.50;;;;;;;;;;5070231;28;20036;-62
2024/03/27 07:12:25;;;;;;;1.27;0.40;;;;;;;;;;5070222;28;20477;-60
2024/03/27 07:14:50;;;;;;;0.80;0.40;;;;;;;;;;5069515;28;20051;-60
2024/03/27 07:17:17;;;;;;;0.93;0.45;;;;;;;;;;5069780;28;20388;-61
2024/03/27 07:19:49;;;;;;;2.33;0.60;;;;;;;;;;5069502;28;20060;-61
2024/03/27 07:22:15;;;;;;;0.98;0.50;;;;;;;;;;5070150;28;20037;-62
2024/03/27 07:24:40;;;;;;;0.88;0.40;;;;;;;;;;5069236;28;20403;-61
2024/03/27 07:27:05;;;;;;;0.93;0.40;;;;;;;;;;5069963;28;20036;-58
2024/03/27 07:29:31;;;;;;;0.90;0.40;;;;;;;;;;5069914;28;20020;-61
2024/03/27 07:31:56;;;;;;;0.98;0.50;;;;;;;;;;5069656;28;20111;-61
2024/03/27 07:34:21;;;;;;;0.82;0.40;;;;;;;;;;5068752;28;20125;-61
2024/03/27 07:36:47;;;;;;;0.75;0.40;;;;;;;;;;5074368;28;20097;-61
2024/03/27 07:39:12;;;;;;;0.82;0.40;;;;;;;;;;5073499;28;20036;-61
2024/03/27 07:41:38;;;;;;;1.23;0.47;;;;;;;;;;5074093;28;20037;-61
2024/03/27 07:44:03;;;;;;;2.33;0.68;;;;;;;;;;5073720;28;20036;-56
2024/03/27 07:46:28;;;;;;;1.13;0.45;;;;;;;;;;5073979;28;20057;-55
2024/03/27 07:48:55;;;;;;;0.73;0.40;;;;;;;;;;5073453;28;20029;-58
2024/03/27 07:51:21;;;;;;;1.25;0.55;;;;;;;;;;5071765;28;20029;-56
2024/03/27 07:53:46;;;;;;;0.82;0.50;;;;;;;;;;5073978;28;20060;-58
2024/03/27 07:56:12;;;;;;;1.58;0.60;;;;;;;;;;5072604;28;20381;-57
2024/03/27 07:58:37;;;;;;;0.70;0.40;;;;;;;;;;5073549;28;20024;-57
2024/03/27 08:01:03;;;;;;;1.63;0.50;;;;;;;;;;5072808;28;20036;-61
2024/03/27 08:03:30;;;;;;;0.70;0.40;;;;;;;;;;5071634;28;20039;-63
2024/03/27 08:05:56;;;;;;;0.30;0.30;;;;;;;;;;5072529;28;20036;-62
2024/03/27 08:08:21;;;;;;;1.70;0.70;;;;;;;;;;5074026;28;20093;-62
2024/03/27 08:11:00;;;;;;;1.05;0.43;;;;;;;;;;5073539;28;20169;-61
2024/03/27 08:13:26;;;;;;;1.00;0.60;;;;;;;;;;5073445;28;20040;-62
2024/03/27 08:15:51;;;;;;;0.77;0.47;;;;;;;;;;5072569;28;20660;-62
2024/03/27 08:18:17;;;;;;;0.98;0.40;;;;;;;;;;5072553;28;20142;-63
2024/03/27 08:20:51;;;;;;;1.13;0.57;;;;;;;;;;5072521;28;20597;-61
2024/03/27 08:23:16;;;;;;;0.93;0.40;;;;;;;;;;5072459;28;20111;-56
2024/03/27 08:25:41;;;;;;;0.82;0.43;;;;;;;;;;5072421;28;20115;-57
2024/03/27 08:28:07;;;;;;;1.20;0.50;;;;;;;;;;5072734;28;20115;-57
2024/03/27 08:30:32;;;;;;;1.08;0.50;;;;;;;;;;5073134;28;20020;-57
2024/03/27 08:32:57;;;;;;;3.47;0.50;;;;;;;;;;5072851;28;20044;-57
2024/03/27 08:35:23;;;;;;;1.20;0.63;;;;;;;;;;5072331;28;20040;-55
2024/03/27 08:37:49;;;;;;;1.05;0.50;;;;;;;;;;5072222;28;20498;-57
2024/03/27 08:40:14;;;;;;;3.97;0.50;;;;;;;;;;5072705;28;20040;-57
2024/03/27 08:42:40;;;;;;;2.33;0.68;;;;;;;;;;5072597;28;20050;-58
2024/03/27 08:45:05;;;;;;;1.48;0.60;;;;;;;;;;5072950;28;20036;-55
2024/03/27 08:47:31;;;;;;;1.90;0.77;;;;;;;;;;5071519;28;20033;-54
2024/03/27 08:49:57;;;;;;;2.58;0.52;;;;;;;;;;5072793;28;20088;-57
2024/03/27 08:52:22;;;;;;;1.27;0.52;;;;;;;;;;5082402;28;20028;-54
2024/03/27 08:54:47;;;;;;;0.63;0.40;;;;;;;;;;5076881;28;20098;-57
2024/03/27 08:57:13;;;;;;;0.90;0.57;;;;;;;;;;5074959;28;20078;-57
2024/03/27 08:59:38;;;;;;;1.02;0.40;;;;;;;;;;5075336;28;20494;-54
2024/03/27 09:02:03;;;;;;;1.30;0.43;;;;;;;;;;5072368;28;20043;-57
2024/03/27 09:04:29;;;;;;;0.52;0.35;;;;;;;;;;5072497;28;20123;-57
2024/03/27 09:06:54;;;;;;;1.70;0.57;;;;;;;;;;5071409;28;20542;-61
2024/03/27 09:09:19;;;;;;;1.27;0.40;;;;;;;;;;5071539;28;20040;-61
2024/03/27 09:11:45;;;;;;;1.23;0.60;;;;;;;;;;5071004;28;20041;-61
2024/03/27 09:14:10;;;;;;;0.32;0.30;;;;;;;;;;5071282;28;20480;-62
2024/03/27 09:16:35;;;;;;;1.08;0.38;;;;;;;;;;5071814;28;20048;-61
2024/03/27 09:19:00;;;;;;;1.27;0.50;;;;;;;;;;5066202;28;20472;-60
2024/03/27 09:21:26;;;;;;;1.63;0.40;;;;;;;;;;5056676;28;20377;-60
2024/03/27 09:23:51;;;;;;;0.95;0.40;;;;;;;;;;5067646;28;20394;-61
2024/03/27 09:26:18;;;;;;;0.73;0.50;;;;;;;;;;5067990;28;20071;-60
2024/03/27 09:28:44;;;;;;;1.17;0.40;;;;;;;;;;5069003;28;20029;-61
2024/03/27 09:31:09;;;;;;;3.30;0.50;;;;;;;;;;5067387;28;20086;-61
2024/03/27 09:33:34;;;;;;;0.40;0.30;;;;;;;;;;5067670;28;20043;-58
2024/03/27 09:36:00;;;;;;;1.38;0.40;;;;;;;;;;5068026;28;20464;-61
2024/03/27 09:38:25;;;;;;;0.45;0.40;;;;;;;;;;5067453;28;20033;-59
2024/03/27 09:40:57;;;;;;;0.88;0.40;;;;;;;;;;5068389;28;20043;-61
2024/03/27 09:43:24;;;;;;;1.20;0.50;;;;;;;;;;5068730;28;20099;-61
2024/03/27 09:45:50;;;;;;;0.38;0.30;;;;;;;;;;5067558;28;20054;-61
2024/03/27 09:48:16;;;;;;;1.42;0.70;;;;;;;;;;5067782;28;20900;-62
2024/03/27 09:50:41;;;;;;;1.92;0.40;;;;;;;;;;5067317;28;20044;-60
2024/03/27 09:53:07;;;;;;;2.67;0.60;;;;;;;;;;5066962;28;20040;-60
2024/03/27 09:55:37;;;;;;;2.22;0.50;;;;;;;;;;5066991;28;20039;-60
2024/03/27 09:58:12;;;;;;;0.35;0.30;;;;;;;;;;5067052;28;20033;-60
2024/03/27 10:00:38;;;;;;;0.73;0.40;;;;;;;;;;5067153;28;20124;-63
2024/03/27 10:03:04;;;;;;;0.70;0.47;;;;;;;;;;5067195;28;20048;-61
2024/03/27 10:05:32;;;;;;;0.38;0.28;;;;;;;;;;5067840;28;20475;-59
2024/03/27 10:07:57;;;;;;;1.10;0.50;;;;;;;;;;5067322;28;20089;-60
2024/03/27 10:10:23;;;;;;;1.00;0.50;;;;;;;;;;5066266;28;20028;-61
2024/03/27 10:12:49;;;;;;;0.68;0.52;;;;;;;;;;5067141;28;20056;-61
2024/03/27 10:15:14;;;;;;;0.30;0.30;;;;;;;;;;5066653;28;20070;-61
2024/03/27 10:17:40;;;;;;;0.50;0.30;;;;;;;;;;5067580;28;20365;-61
2024/03/27 10:20:06;;;;;;;0.32;0.30;;;;;;;;;;5066850;28;20123;-60
2024/03/27 10:22:33;;;;;;;1.85;0.40;;;;;;;;;;5066783;28;20562;-61
2024/03/27 10:24:59;;;;;;;0.60;0.45;;;;;;;;;;5066756;28;20060;-59
2024/03/27 10:27:25;;;;;;;0.80;0.50;;;;;;;;;;5066519;28;20036;-60
2024/03/27 10:29:50;;;;;;;0.30;0.30;;;;;;;;;;5048875;28;20076;-61
2024/03/27 10:32:15;;;;;;;1.10;0.40;;;;;;;;;;5067127;28;20071;-61
2024/03/27 10:34:42;;;;;;;0.40;0.40;;;;;;;;;;5064462;28;20041;-59
2024/03/27 10:37:10;;;;;;;0.88;0.57;;;;;;;;;;5067035;28;20040;-58
2024/03/27 10:39:48;;;;;;;0.80;0.40;;;;;;;;;;5066178;28;20036;-60
2024/03/27 10:42:17;;;;;;;1.10;0.50;;;;;;;;;;5066528;28;20135;-61
2024/03/27 10:44:46;;;;;;;1.05;0.70;;;;;;;;;;5065061;28;20032;-60
2024/03/27 10:47:13;;;;;;;0.40;0.40;;;;;;;;;;5066718;28;20044;-61
2024/03/27 10:49:40;;;;;;;0.82;0.47;;;;;;;;;;5064812;28;20102;-59
2024/03/27 10:52:08;;;;;;;0.57;0.40;;;;;;;;;;5065627;28;20024;-60
2024/03/27 10:54:34;;;;;;;0.38;0.30;;;;;;;;;;5047802;28;20135;-60
2024/03/27 10:57:00;;;;;;;0.82;0.43;;;;;;;;;;5051415;28;20036;-62
2024/03/27 10:59:26;;;;;;;1.08;0.52;;;;;;;;;;5048266;28;20037;-62
2024/03/27 11:02:08;;;;;;;0.52;0.40;;;;;;;;;;5066513;28;20477;-62
2024/03/27 11:04:36;;;;;;;1.40;0.50;;;;;;;;;;5051178;28;20498;-61
2024/03/27 11:07:02;;;;;;;0.68;0.32;;;;;;;;;;5060788;28;20036;-62
2024/03/27 11:09:27;;;;;;;0.70;0.50;;;;;;;;;;5047677;28;20960;-63
2024/03/27 11:11:53;;;;;;;2.72;0.50;;;;;;;;;;5066162;28;20047;-63
2024/03/27 11:14:21;;;;;;;1.60;0.40;;;;;;;;;;5065431;28;20630;-62
2024/03/27 11:16:54;;;;;;;0.93;0.43;;;;;;;;;;5066407;28;20029;-60
2024/03/27 11:19:32;;;;;;;1.17;0.50;;;;;;;;;;5066035;28;20045;-61
2024/03/27 11:22:17;;;;;;;0.70;0.40;;;;;;;;;;5065611;28;20514;-61
2024/03/27 11:24:43;;;;;;;0.52;0.38;;;;;;;;;;5061335;28;20071;-62
2024/03/27 11:27:10;;;;;;;2.67;0.43;;;;;;;;;;5065566;28;20437;-61
2024/03/27 11:29:36;;;;;;;0.68;0.43;;;;;;;;;;5047453;28;20036;-60
2024/03/27 11:32:03;;;;;;;0.35;0.32;;;;;;;;;;5066423;28;20049;-62
2024/03/27 11:34:29;;;;;;;0.68;0.40;;;;;;;;;;5065581;28;20069;-62
2024/03/27 11:36:55;;;;;;;1.20;0.50;;;;;;;;;;5065916;28;20068;-60
2024/03/27 11:39:21;;;;;;;0.77;0.40;;;;;;;;;;5066365;28;20064;-61
2024/03/27 11:41:47;;;;;;;0.75;0.38;;;;;;;;;;5065864;28;20037;-62
2024/03/27 11:44:16;;;;;;;0.70;0.40;;;;;;;;;;5065537;28;20090;-62
2024/03/27 11:46:42;;;;;;;0.45;0.28;;;;;;;;;;5065965;28;20598;-62
2024/03/27 11:49:08;;;;;;;1.17;0.50;;;;;;;;;;5066301;28;20028;-61
2024/03/27 11:51:34;;;;;;;0.47;0.40;;;;;;;;;;5065292;28;20648;-59
2024/03/27 11:54:00;;;;;;;0.40;0.30;;;;;;;;;;5066212;28;20032;-60
2024/03/27 11:56:36;;;;;;;1.00;0.50;;;;;;;;;;5065659;28;20040;-60
2024/03/27 11:59:03;;;;;;;1.70;0.50;;;;;;;;;;5066323;28;20041;-61
2024/03/27 12:01:31;;;;;;;0.82;0.50;;;;;;;;;;5052921;28;20059;-61
2024/03/27 12:03:57;;;;;;;1.00;0.40;;;;;;;;;;5065755;28;20033;-60
2024/03/27 12:06:24;;;;;;;1.52;0.50;;;;;;;;;;5065663;28;20044;-60
2024/03/27 12:08:50;;;;;;;0.70;0.38;;;;;;;;;;5065139;28;20051;-60
2024/03/27 12:11:19;;;;;;;0.63;0.40;;;;;;;;;;5065687;28;20468;-61
2024/03/27 12:13:45;;;;;;;1.85;0.40;;;;;;;;;;5052643;28;20044;-60
2024/03/27 12:16:11;;;;;;;0.85;0.50;;;;;;;;;;5065211;28;20036;-60
2024/03/27 12:18:37;;;;;;;0.68;0.30;;;;;;;;;;5066332;28;20048;-61
2024/03/27 12:21:09;;;;;;;0.45;0.40;;;;;;;;;;5066720;28;20139;-62
2024/03/27 12:23:38;;;;;;;0.73;0.40;;;;;;;;;;5068865;28;20036;-60
2024/03/27 12:26:14;;;;;;;0.73;0.47;;;;;;;;;;5060968;28;20101;-62
2024/03/27 12:28:40;;;;;;;0.80;0.40;;;;;;;;;;5068998;28;20041;-60
2024/03/27 12:31:06;;;;;;;0.77;0.40;;;;;;;;;;5068688;28;20387;-59
2024/03/27 12:33:32;;;;;;;0.55;0.30;;;;;;;;;;5068832;28;20036;-60
2024/03/27 12:35:57;;;;;;;0.45;0.30;;;;;;;;;;5069015;28;20055;-60
2024/03/27 12:38:23;;;;;;;1.17;0.30;;;;;;;;;;5068775;28;20040;-60
2024/03/27 12:40:48;;;;;;;0.38;0.38;;;;;;;;;;5050620;28;20448;-59
2024/03/27 12:43:13;;;;;;;1.30;0.40;;;;;;;;;;5067854;28;20036;-62
2024/03/27 12:45:39;;;;;;;0.57;0.38;;;;;;;;;;5067612;28;20511;-61
2024/03/27 12:48:04;;;;;;;0.75;0.50;;;;;;;;;;5068178;28;20068;-62
2024/03/27 12:50:30;;;;;;;0.95;0.43;;;;;;;;;;5068818;28;20029;-62
2024/03/27 12:52:55;;;;;;;0.60;0.40;;;;;;;;;;5062247;28;20037;-63
2024/03/27 12:55:20;;;;;;;0.65;0.32;;;;;;;;;;5069514;28;20222;-63
2024/03/27 12:57:49;;;;;;;1.70;0.45;;;;;;;;;;5045545;28;20107;-62
2024/03/27 13:00:18;;;;;;;0.88;0.40;;;;;;;;;;5066837;28;20044;-63
2024/03/27 13:02:44;;;;;;;1.48;0.73;;;;;;;;;;5070814;28;20700;-62
2024/03/27 13:05:10;;;;;;;0.60;0.40;;;;;;;;;;5070574;28;20491;-61
2024/03/27 13:07:35;;;;;;;1.65;0.60;;;;;;;;;;5070329;28;20063;-62
2024/03/27 13:10:01;;;;;;;1.20;0.40;;;;;;;;;;5071453;28;20029;-63
2024/03/27 13:12:26;;;;;;;0.70;0.50;;;;;;;;;;5071479;28;20468;-62
2024/03/27 13:14:52;;;;;;;0.80;0.40;;;;;;;;;;5071467;28;20036;-63
2024/03/27 13:17:19;;;;;;;1.52;0.60;;;;;;;;;;5071285;28;20676;-62
2024/03/27 13:19:44;;;;;;;1.15;0.45;;;;;;;;;;5070455;28;20404;-60
2024/03/27 13:22:10;;;;;;;0.75;0.40;;;;;;;;;;5077520;28;20043;-60
2024/03/27 13:24:35;;;;;;;1.67;0.50;;;;;;;;;;5077347;28;20045;-62
2024/03/27 13:27:00;;;;;;;0.93;0.52;;;;;;;;;;5072501;28;20059;-62
2024/03/27 13:29:27;;;;;;;3.08;0.60;;;;;;;;;;5070471;28;20423;-61
2024/03/27 13:31:52;;;;;;;1.15;0.50;;;;;;;;;;5051452;28;20041;-63
2024/03/27 13:34:17;;;;;;;4.05;0.70;;;;;;;;;;5066459;28;20046;-62
2024/03/27 13:36:43;;;;;;;0.45;0.30;;;;;;;;;;5067211;28;20044;-63
2024/03/27 13:39:08;;;;;;;0.82;0.47;;;;;;;;;;5067349;28;20040;-62
2024/03/27 13:41:33;;;;;;;2.25;0.70;;;;;;;;;;5068007;28;20033;-62
2024/03/27 13:43:59;;;;;;;3.22;0.75;;;;;;;;;;5059905;28;20036;-63
2024/03/27 13:46:24;;;;;;;3.28;0.68;;;;;;;;;;5066563;28;20032;-62
2024/03/27 13:48:53;;;;;;;0.85;0.60;;;;;;;;;;5067055;28;20094;-60
2024/03/27 13:51:18;;;;;;;1.17;0.60;;;;;;;;;;5066691;28;20041;-62
2024/03/27 13:53:43;;;;;;;3.33;0.52;;;;;;;;;;5067193;28;20029;-62
2024/03/27 13:56:09;;;;;;;3.63;0.80;;;;;;;;;;5066730;28;20032;-62
2024/03/27 13:58:34;;;;;;;4.13;0.70;;;;;;;;;;5066520;28;20048;-62
2024/03/27 14:01:00;;;;;;;2.45;0.63;;;;;;;;;;5060229;28;20535;-62
2024/03/27 14:03:25;;;;;;;1.23;0.57;;;;;;;;;;5055929;28;20033;-62
2024/03/27 14:05:50;;;;;;;3.78;0.70;;;;;;;;;;5066453;28;20047;-62
2024/03/27 14:08:16;;;;;;;0.82;0.52;;;;;;;;;;5065891;28;20029;-62
2024/03/27 14:10:41;;;;;;;3.70;0.70;;;;;;;;;;5063845;28;20042;-61
2024/03/27 14:13:07;;;;;;;1.05;0.50;;;;;;;;;;5067182;28;20040;-62
2024/03/27 14:15:32;;;;;;;2.88;0.60;;;;;;;;;;5065947;28;20843;-58
2024/03/27 14:17:58;;;;;;;2.90;0.70;;;;;;;;;;5048336;28;20079;-62
2024/03/27 14:20:23;;;;;;;2.65;0.65;;;;;;;;;;5066297;28;20061;-62
2024/03/27 14:22:48;;;;;;;1.98;0.73;;;;;;;;;;5065748;28;20044;-62
2024/03/27 14:25:14;;;;;;;5.38;0.77;;;;;;;;;;5066390;28;20043;-62
2024/03/27 14:27:39;;;;;;;2.47;0.80;;;;;;;;;;5066218;28;20048;-62
2024/03/27 14:30:05;;;;;;;1.50;0.55;;;;;;;;;;5065917;28;20476;-62
2024/03/27 14:32:30;;;;;;;2.38;0.70;;;;;;;;;;5064948;28;20040;-62
2024/03/27 14:34:55;;;;;;;0.90;0.40;;;;;;;;;;5066976;28;20099;-63